EHEH/EIN METAR and TAF weather

Enter ICAO airport designator
Station Type Date Time Source
EHEH METAR 2022/12/08 12:25 UTC NOAA

EHEH 081225Z AUTO 32004KT 260V050 6000 DZ SCT006 BKN007 OVC010 03/02 Q1007 YLO TEMPO 4000 SHRA SCT006 SCT015CB


Station Type Date Time Source
EHEH Decoded METAR 2022/12/08 12:25 UTC NOAA

Eindhoven, Netherlands (EHEH) 51-27N 005-25E 28M
Dec 08, 2022 - 07:25 AM EST / 2022.12.08 1225 UTC
Wind: from the NW (320 degrees) at 5 MPH (4 KT) (direction variable):0
Visibility: 3 mile(s):0
Sky conditions: overcast
Weather: drizzle; Cumulonimbus clouds observed
Temperature: 37 F (3 C)
Dew Point: 35 F (2 C)
Relative Humidity: 93%
Pressure (altimeter): 29.74 in. Hg (1007 hPa)
ob: EHEH 081225Z AUTO 32004KT 260V050 6000 DZ SCT006 BKN007 OVC010 03/02 Q1007 YLO TEMPO 4000 SHRA SCT006 SCT015CB
cycle: 12

Station Type Date Time Source
EHEH TAF 2022/12/08 12:12 UTC NOAA

TAF TAF EHEH 081158Z 0812/0918 25006KT 9999 BKN015
BECMG 0812/0814 FEW018 BKN025
TEMPO 0812/0814 4000 SHRA SHRASN SCT006 BKN009 SCT015CB
TEMPO 0814/0822 BKN008
BECMG 0817/0820 VRB02KT 3000 BR SCT004 BKN006
TEMPO 0819/0908 1200 PROB40
TEMPO 0820/0908 0800 FG FZFG BKN001
BECMG 0909/0911 BKN012
BECMG 0912/0914 SCT025 PROB40 0916/0918 4000 BR

Example: see airport list